Guangzhou Baiyun International Airport

Airport
ICAO code: 
ZGGG
IATA Code: 
CAN
Summary
ICAO Region: 
APAC
Territory: 
Location: 
Guangzhou, Guangdong
Serving: 
Guangzhou
Elevation: 
50 ft
Coordinates: 
Aerial View: 
23° 23' 33" N, 113° 17' 56" E
Metar
Observation
ZGGG 040700Z VRB04G09MPS CAVOK 22/M03 Q1020 NOSIG
Station
Guangzhou
Date/Time
2021-12-04 07:00:00
Lowest cloud amount
clouds and visibility OK
Temperature
22°C
Dew point
-3°C
Humidity
18%
QNH
1020 hPa
Weather condition
n/a

Guangzhou Baiyun International Airport is the main airport of Guangzhou, the capital of the province of Guangdong, People's Republic of China.

Climatology

Within the Köppen Climate Classification System, ((Koppen climate classification Cwa)) this climate type generally has warm and humid summers with mild winters. Its extent is from 30 to 50° of latitude mainly on the eastern and western borders of most continents. During the winter, the main weather feature is the mid-latitude cyclone. Convective thunderstorms provide precipitation in the summer months.

Runways

Designator Length Width Surface Rops
02L/20R 3600 45 CON Yes/Yes
02R/20L 3800 60 CON Yes/Yes
Airport map: 
Aerial View: 

SKYbrary Partners:

Safety knowledge contributed by: